createdAt,value
2023-02-19T00:00:03.148Z,451.00
2023-02-19T00:01:03.125Z,450.00
2023-02-19T00:02:03.205Z,452.00
2023-02-19T00:03:03.259Z,455.00
2023-02-19T00:04:03.268Z,455.00
2023-02-19T00:05:03.443Z,454.00
2023-02-19T00:06:03.400Z,452.00
2023-02-19T00:07:03.444Z,454.00
2023-02-19T00:08:03.448Z,452.00
2023-02-19T00:09:03.507Z,450.00
2023-02-19T00:10:03.564Z,452.00
2023-02-19T00:11:03.559Z,450.00
2023-02-19T00:12:03.608Z,450.00
2023-02-19T00:13:03.683Z,447.00
2023-02-19T00:14:03.704Z,449.00
2023-02-19T00:15:03.754Z,450.00
2023-02-19T00:16:03.815Z,450.00
2023-02-19T00:17:03.820Z,449.00
2023-02-19T00:18:03.823Z,450.00
2023-02-19T00:19:03.872Z,450.00
2023-02-19T00:20:03.947Z,448.00
2023-02-19T00:21:04.001Z,450.00
2023-02-19T00:22:04.020Z,451.00
2023-02-19T00:23:04.065Z,451.00
2023-02-19T00:24:04.127Z,453.00
2023-02-19T00:25:04.136Z,454.00
2023-02-19T00:26:17.269Z,455.00
2023-02-19T00:27:05.208Z,458.00
2023-02-19T00:28:04.190Z,457.00
2023-02-19T00:29:04.193Z,456.00
2023-02-19T00:30:04.207Z,455.00
2023-02-19T00:31:04.196Z,454.00
2023-02-19T00:32:04.185Z,454.00
2023-02-19T00:33:04.172Z,455.00
2023-02-19T00:34:04.185Z,455.00
2023-02-19T00:35:04.157Z,456.00
2023-02-19T00:36:04.157Z,456.00
2023-02-19T00:37:04.178Z,456.00
2023-02-19T00:38:04.123Z,457.00
2023-02-19T00:39:04.132Z,457.00
2023-02-19T00:40:04.151Z,456.00
2023-02-19T00:41:04.187Z,458.00
2023-02-19T00:42:04.222Z,457.00
2023-02-19T00:43:04.232Z,454.00
2023-02-19T00:44:04.305Z,453.00
2023-02-19T00:45:04.358Z,455.00
2023-02-19T00:46:04.395Z,456.00
2023-02-19T00:47:04.450Z,453.00
2023-02-19T00:48:04.434Z,454.00
2023-02-19T00:49:04.469Z,453.00
2023-02-19T01:19:05.500Z,468.00
2023-02-19T01:20:05.542Z,468.00
2023-02-19T01:21:05.590Z,466.00
2023-02-19T01:22:05.611Z,468.00
2023-02-19T01:23:05.662Z,466.00
2023-02-19T01:24:05.704Z,464.00
2023-02-19T01:25:05.742Z,466.00
2023-02-19T01:26:05.782Z,466.00
2023-02-19T01:27:05.816Z,464.00
2023-02-19T01:28:05.936Z,463.00
2023-02-19T01:29:05.881Z,464.00
2023-02-19T01:30:05.969Z,467.00
2023-02-19T01:31:05.955Z,463.00
2023-02-19T01:32:06.143Z,464.00
2023-02-19T01:33:06.017Z,466.00
2023-02-19T01:34:06.020Z,470.00
2023-02-19T01:35:06.060Z,469.00
2023-02-19T01:36:06.099Z,471.00
2023-02-19T01:37:06.137Z,469.00
2023-02-19T01:38:06.200Z,465.00
2023-02-19T01:39:06.246Z,463.00
2023-02-19T01:40:06.281Z,464.00
2023-02-19T01:41:06.332Z,465.00
2023-02-19T01:42:06.328Z,465.00
2023-02-19T01:43:06.408Z,464.00
2023-02-19T01:44:06.469Z,465.00
2023-02-19T01:45:06.508Z,463.00
2023-02-19T01:46:06.555Z,466.00
2023-02-19T01:47:06.572Z,468.00
2023-02-19T01:48:06.605Z,466.00
2023-02-19T01:49:06.672Z,464.00
2023-02-19T01:50:06.742Z,468.00
2023-02-19T01:51:06.741Z,470.00
2023-02-19T01:52:06.826Z,471.00
2023-02-19T01:53:06.869Z,471.00
2023-02-19T01:54:06.932Z,471.00
2023-02-19T01:55:06.916Z,472.00
2023-02-19T01:56:06.983Z,470.00
2023-02-19T01:57:07.061Z,470.00
2023-02-19T01:58:07.054Z,469.00
2023-02-19T01:59:07.101Z,468.00
2023-02-19T02:00:07.128Z,470.00
2023-02-19T02:01:07.296Z,468.00
2023-02-19T02:02:07.342Z,467.00
2023-02-19T02:03:07.306Z,466.00
2023-02-19T02:04:07.308Z,463.00
2023-02-19T02:05:07.404Z,463.00
2023-02-19T02:06:07.427Z,464.00
2023-02-19T02:07:07.480Z,464.00
2023-02-19T02:08:07.545Z,466.00
2023-02-19T02:09:07.568Z,467.00
2023-02-19T02:10:07.593Z,466.00
2023-02-19T02:11:07.752Z,466.00
2023-02-19T02:12:07.663Z,468.00
2023-02-19T02:13:07.749Z,468.00
2023-02-19T02:14:07.731Z,468.00
2023-02-19T02:15:07.797Z,470.00
2023-02-19T02:16:07.855Z,470.00
2023-02-19T02:17:43.650Z,469.00
2023-02-19T02:18:43.664Z,469.00
2023-02-19T02:19:43.658Z,470.00
2023-02-19T02:20:43.644Z,469.00
2023-02-19T02:21:43.636Z,472.00
2023-02-19T02:22:43.658Z,472.00
2023-02-19T02:23:43.716Z,472.00
2023-02-19T02:24:43.704Z,472.00
2023-02-19T02:25:43.716Z,471.00
2023-02-19T02:26:43.772Z,469.00
2023-02-19T02:27:43.772Z,468.00
2023-02-19T02:28:43.747Z,465.00
2023-02-19T02:29:43.745Z,465.00
2023-02-19T02:30:43.732Z,461.00
2023-02-19T02:31:43.902Z,463.00
2023-02-19T02:32:43.751Z,465.00
2023-02-19T02:33:43.766Z,465.00
2023-02-19T02:34:43.789Z,463.00
2023-02-19T02:35:43.787Z,464.00
2023-02-19T02:36:43.792Z,465.00
2023-02-19T02:37:43.802Z,464.00
2023-02-19T02:38:43.817Z,466.00
2023-02-19T02:39:43.820Z,465.00
2023-02-19T02:40:43.815Z,463.00
2023-02-19T02:41:43.836Z,463.00
2023-02-19T02:42:43.829Z,463.00
2023-02-19T02:43:43.841Z,462.00
2023-02-19T02:44:43.847Z,463.00
2023-02-19T02:45:43.904Z,463.00
2023-02-19T02:46:43.889Z,462.00
2023-02-19T02:47:43.878Z,462.00
2023-02-19T02:48:43.885Z,465.00
2023-02-19T02:49:43.900Z,466.00
2023-02-19T02:50:43.901Z,468.00
2023-02-19T02:51:43.897Z,467.00
2023-02-19T02:52:43.877Z,468.00
2023-02-19T02:53:43.909Z,469.00
2023-02-19T02:54:43.912Z,468.00
2023-02-19T02:55:43.883Z,468.00
2023-02-19T02:56:43.926Z,471.00
2023-02-19T02:57:43.895Z,472.00
2023-02-19T02:58:43.946Z,471.00
2023-02-19T02:59:43.927Z,472.00
2023-02-19T03:00:43.943Z,471.00
2023-02-19T03:01:43.986Z,472.00
2023-02-19T03:02:44.037Z,474.00
2023-02-19T03:03:44.081Z,474.00
2023-02-19T03:04:44.127Z,475.00
2023-02-19T03:05:44.157Z,476.00
2023-02-19T03:06:44.189Z,475.00
2023-02-19T03:07:44.273Z,473.00
2023-02-19T03:08:44.372Z,470.00
2023-02-19T03:09:44.432Z,472.00
2023-02-19T03:10:44.436Z,474.00
2023-02-19T03:11:44.549Z,472.00
2023-02-19T03:12:44.584Z,472.00
2023-02-19T03:13:44.589Z,473.00
2023-02-19T03:14:44.657Z,473.00
2023-02-19T03:15:44.726Z,473.00
2023-02-19T03:16:44.785Z,473.00
2023-02-19T03:17:44.831Z,471.00
2023-02-19T03:18:44.904Z,470.00
2023-02-19T03:19:44.928Z,469.00
2023-02-19T03:20:44.965Z,468.00
2023-02-19T03:21:45.032Z,470.00
2023-02-19T03:22:45.111Z,470.00
2023-02-19T03:23:45.163Z,471.00
2023-02-19T03:24:45.179Z,471.00
2023-02-19T03:25:45.262Z,470.00
2023-02-19T03:26:45.292Z,470.00
2023-02-19T03:27:45.349Z,471.00
2023-02-19T03:28:45.396Z,472.00
2023-02-19T03:29:45.485Z,472.00
2023-02-19T03:30:45.512Z,473.00
2023-02-19T03:31:45.694Z,473.00
2023-02-19T03:32:45.630Z,473.00
2023-02-19T03:33:45.714Z,472.00
2023-02-19T03:34:45.766Z,472.00
2023-02-19T03:35:45.789Z,471.00
2023-02-19T03:36:45.899Z,471.00
2023-02-19T03:37:45.965Z,472.00
2023-02-19T03:38:45.980Z,473.00
2023-02-19T03:39:46.051Z,474.00
2023-02-19T03:40:46.097Z,471.00
2023-02-19T03:41:46.135Z,472.00
2023-02-19T03:42:46.290Z,471.00
2023-02-19T03:43:46.296Z,474.00
2023-02-19T03:44:46.337Z,474.00
2023-02-19T03:45:46.406Z,475.00
2023-02-19T03:46:46.423Z,476.00
2023-02-19T03:47:46.466Z,475.00
2023-02-19T03:48:46.520Z,474.00
2023-02-19T03:49:48.933Z,474.00
2023-02-19T03:50:46.702Z,472.00
2023-02-19T03:51:46.777Z,472.00
2023-02-19T03:52:46.826Z,474.00
2023-02-19T03:53:46.858Z,476.00
2023-02-19T03:54:46.907Z,475.00
2023-02-19T03:55:46.992Z,477.00
2023-02-19T03:56:47.025Z,477.00
2023-02-19T03:57:47.115Z,477.00
2023-02-19T03:58:47.160Z,478.00
2023-02-19T03:59:47.186Z,479.00
2023-02-19T04:00:47.258Z,479.00
2023-02-19T04:01:47.346Z,480.00
2023-02-19T04:02:47.405Z,480.00
2023-02-19T04:03:47.466Z,479.00
2023-02-19T04:04:47.568Z,478.00
2023-02-19T04:05:47.532Z,475.00
2023-02-19T04:06:47.595Z,478.00
2023-02-19T04:07:47.650Z,477.00
2023-02-19T04:08:47.739Z,478.00
2023-02-19T04:09:47.803Z,475.00
2023-02-19T04:10:47.836Z,473.00
2023-02-19T04:11:47.921Z,471.00
2023-02-19T04:12:47.976Z,470.00
2023-02-19T04:13:48.032Z,471.00
2023-02-19T04:14:48.112Z,472.00
2023-02-19T04:15:48.225Z,473.00
2023-02-19T04:16:48.230Z,474.00
2023-02-19T04:17:48.339Z,476.00
2023-02-19T04:18:48.333Z,479.00
2023-02-19T04:19:48.345Z,478.00
2023-02-19T04:20:48.396Z,477.00
2023-02-19T04:21:48.438Z,477.00
2023-02-19T04:22:48.526Z,475.00
2023-02-19T04:23:48.556Z,476.00
2023-02-19T04:24:48.586Z,474.00
2023-02-19T04:25:48.680Z,476.00
2023-02-19T04:26:48.691Z,474.00
2023-02-19T04:27:48.787Z,475.00
2023-02-19T04:28:48.824Z,477.00
2023-02-19T04:29:48.860Z,476.00
2023-02-19T04:30:48.919Z,475.00
2023-02-19T04:31:48.932Z,474.00
2023-02-19T04:32:49.033Z,473.00
2023-02-19T04:33:49.078Z,476.00
2023-02-19T04:34:49.132Z,477.00
2023-02-19T04:35:49.205Z,479.00
2023-02-19T04:36:49.241Z,478.00
2023-02-19T04:37:49.249Z,478.00
2023-02-19T04:38:49.320Z,478.00
2023-02-19T04:39:49.365Z,478.00
2023-02-19T04:40:49.389Z,478.00
2023-02-19T04:41:49.453Z,478.00
2023-02-19T04:42:49.500Z,476.00
2023-02-19T04:43:49.501Z,476.00
2023-02-19T04:44:49.557Z,474.00
2023-02-19T04:45:49.664Z,476.00
2023-02-19T04:46:49.651Z,478.00
2023-02-19T04:47:49.697Z,479.00
2023-02-19T04:48:49.745Z,480.00
2023-02-19T04:49:49.766Z,481.00
2023-02-19T04:50:49.823Z,481.00
2023-02-19T04:51:49.876Z,481.00
2023-02-19T04:52:49.959Z,481.00
2023-02-19T04:53:49.987Z,483.00
2023-02-19T04:54:50.033Z,482.00
2023-02-19T04:55:50.082Z,482.00
2023-02-19T04:56:50.135Z,481.00
2023-02-19T04:57:50.212Z,481.00
2023-02-19T04:58:50.889Z,482.00
2023-02-19T04:59:50.322Z,481.00
2023-02-19T05:00:50.360Z,479.00
2023-02-19T05:01:50.425Z,479.00
2023-02-19T05:02:50.458Z,478.00
2023-02-19T05:03:50.493Z,478.00
2023-02-19T05:04:50.552Z,476.00
2023-02-19T05:05:50.596Z,479.00
2023-02-19T05:06:50.658Z,481.00
2023-02-19T05:07:50.747Z,481.00
2023-02-19T05:08:50.767Z,480.00
2023-02-19T05:09:50.812Z,480.00
2023-02-19T05:10:50.873Z,478.00
2023-02-19T05:11:50.923Z,480.00
2023-02-19T05:12:50.948Z,481.00
2023-02-19T05:13:51.003Z,481.00
2023-02-19T05:15:51.152Z,482.00
2023-02-19T05:16:51.194Z,481.00
2023-02-19T05:17:51.256Z,480.00
2023-02-19T05:18:51.250Z,479.00
2023-02-19T05:20:51.311Z,481.00
2023-02-19T05:21:51.405Z,483.00
2023-02-19T05:22:51.441Z,483.00
2023-02-19T05:23:51.476Z,481.00
2023-02-19T05:46:52.708Z,481.00
2023-02-19T05:47:52.760Z,480.00
2023-02-19T05:48:52.782Z,479.00
2023-02-19T05:49:52.860Z,477.00
2023-02-19T05:50:52.901Z,480.00
2023-02-19T05:51:52.924Z,482.00
2023-02-19T05:52:53.019Z,483.00
2023-02-19T05:53:53.049Z,485.00
2023-02-19T05:54:53.073Z,485.00
2023-02-19T05:55:53.120Z,486.00
2023-02-19T05:56:53.187Z,487.00
2023-02-19T05:57:53.240Z,487.00
2023-02-19T05:58:53.286Z,490.00
2023-02-19T05:59:53.322Z,487.00
2023-02-19T06:00:53.364Z,487.00
2023-02-19T06:01:53.460Z,487.00
2023-02-19T06:02:53.508Z,487.00
2023-02-19T06:03:56.854Z,485.00
2023-02-19T06:04:53.530Z,487.00
2023-02-19T06:05:53.535Z,487.00
2023-02-19T06:06:53.528Z,487.00
2023-02-19T06:07:53.509Z,488.00
2023-02-19T06:08:53.543Z,488.00
2023-02-19T06:09:53.542Z,486.00
2023-02-19T06:10:53.547Z,488.00
2023-02-19T06:11:53.535Z,488.00
2023-02-19T06:12:53.553Z,487.00
2023-02-19T06:13:53.550Z,483.00
2023-02-19T06:14:53.532Z,480.00
2023-02-19T06:15:53.545Z,481.00
2023-02-19T06:16:53.530Z,481.00
2023-02-19T06:17:53.549Z,483.00
2023-02-19T06:18:53.558Z,481.00
2023-02-19T06:19:53.556Z,480.00
2023-02-19T06:20:53.565Z,479.00
2023-02-19T06:21:53.585Z,481.00
2023-02-19T06:22:53.552Z,482.00
2023-02-19T06:23:53.558Z,482.00
2023-02-19T06:24:53.529Z,481.00
2023-02-19T06:25:53.531Z,482.00
2023-02-19T06:26:53.545Z,485.00
2023-02-19T06:27:53.557Z,485.00
2023-02-19T06:28:53.560Z,488.00
2023-02-19T06:29:53.573Z,485.00
2023-02-19T06:30:53.543Z,486.00
2023-02-19T06:31:53.658Z,487.00
2023-02-19T06:32:53.598Z,488.00
2023-02-19T06:33:53.592Z,488.00
2023-02-19T06:34:53.569Z,485.00
2023-02-19T06:35:53.586Z,485.00
2023-02-19T06:36:54.228Z,485.00
2023-02-19T06:37:53.584Z,486.00
2023-02-19T06:38:53.595Z,486.00
2023-02-19T06:39:53.574Z,484.00
2023-02-19T06:40:53.613Z,484.00
2023-02-19T06:41:53.677Z,484.00
2023-02-19T06:42:53.733Z,485.00
2023-02-19T06:43:53.783Z,486.00
2023-02-19T06:44:53.874Z,485.00
2023-02-19T06:45:53.885Z,484.00
2023-02-19T06:46:54.000Z,483.00
2023-02-19T06:47:53.956Z,482.00
2023-02-19T06:48:54.057Z,482.00
2023-02-19T06:49:54.120Z,483.00
2023-02-19T06:50:54.143Z,483.00
2023-02-19T06:51:54.236Z,484.00
2023-02-19T06:52:54.311Z,484.00
2023-02-19T06:53:54.342Z,482.00
2023-02-19T06:54:54.391Z,483.00
2023-02-19T06:55:54.435Z,483.00
2023-02-19T06:56:54.499Z,485.00
2023-02-19T06:57:54.540Z,486.00
2023-02-19T06:58:54.626Z,487.00
2023-02-19T06:59:54.673Z,490.00
2023-02-19T07:00:54.781Z,492.00
2023-02-19T07:08:55.180Z,484.00
2023-02-19T07:09:55.168Z,485.00
2023-02-19T07:10:55.215Z,485.00
2023-02-19T07:11:55.277Z,483.00
2023-02-19T07:12:55.335Z,482.00
2023-02-19T07:13:55.361Z,483.00
2023-02-19T07:14:55.407Z,484.00
2023-02-19T07:15:55.522Z,483.00
2023-02-19T07:16:55.571Z,484.00
2023-02-19T07:17:55.639Z,484.00
2023-02-19T07:18:55.653Z,484.00
2023-02-19T07:19:55.700Z,485.00
2023-02-19T07:20:55.779Z,489.00
2023-02-19T07:21:55.792Z,489.00
2023-02-19T07:22:55.862Z,488.00
2023-02-19T07:23:55.891Z,487.00
2023-02-19T07:24:55.963Z,488.00
2023-02-19T07:25:56.084Z,488.00
2023-02-19T07:26:56.100Z,489.00
2023-02-19T07:27:56.209Z,488.00
2023-02-19T07:28:56.210Z,490.00
2023-02-19T07:29:56.282Z,489.00
2023-02-19T07:30:56.366Z,488.00
2023-02-19T07:31:56.439Z,490.00
2023-02-19T07:32:56.452Z,489.00
2023-02-19T07:33:56.498Z,490.00
2023-02-19T07:34:56.568Z,485.00
2023-02-19T07:35:56.620Z,484.00
2023-02-19T07:36:56.655Z,487.00
2023-02-19T07:37:56.712Z,487.00
2023-02-19T07:38:56.784Z,485.00
2023-02-19T07:39:56.866Z,486.00
2023-02-19T07:40:56.954Z,487.00
2023-02-19T07:41:56.957Z,489.00
2023-02-19T07:42:57.034Z,489.00
2023-02-19T07:43:57.059Z,488.00
2023-02-19T07:44:59.562Z,489.00
2023-02-19T07:45:57.198Z,486.00
2023-02-19T07:46:57.143Z,485.00
2023-02-19T07:47:57.208Z,484.00
2023-02-19T07:48:57.145Z,482.00
2023-02-19T07:49:57.179Z,484.00
2023-02-19T07:50:57.189Z,486.00
2023-02-19T07:51:57.157Z,485.00
2023-02-19T07:52:57.210Z,485.00
2023-02-19T07:53:57.221Z,483.00
2023-02-19T07:54:57.237Z,485.00
2023-02-19T07:55:57.217Z,484.00
2023-02-19T07:56:57.262Z,484.00
2023-02-19T07:57:57.238Z,486.00
2023-02-19T07:58:57.249Z,486.00
2023-02-19T07:59:57.264Z,486.00
2023-02-19T08:00:57.291Z,489.00
2023-02-19T08:01:57.992Z,489.00
2023-02-19T08:02:57.295Z,488.00
2023-02-19T08:13:57.322Z,489.00
2023-02-19T08:16:07.538Z,490.00
2023-02-19T08:16:58.354Z,492.00
2023-02-19T08:17:57.307Z,495.00
2023-02-19T08:18:57.305Z,496.00
2023-02-19T08:19:57.333Z,496.00
2023-02-19T08:20:57.298Z,499.00
2023-02-19T10:09:02.590Z,487.00
2023-02-19T10:10:02.639Z,487.00
2023-02-19T10:11:02.692Z,484.00
2023-02-19T10:12:02.793Z,484.00
2023-02-19T10:13:02.826Z,485.00
2023-02-19T10:14:02.878Z,484.00
2023-02-19T10:15:02.899Z,485.00
2023-02-19T10:16:03.040Z,483.00
2023-02-19T10:17:03.042Z,483.00
2023-02-19T10:18:03.056Z,482.00
2023-02-19T10:19:03.115Z,484.00
2023-02-19T10:20:03.180Z,485.00
2023-02-19T10:21:03.223Z,480.00
2023-02-19T10:22:03.290Z,484.00
2023-02-19T10:23:03.358Z,487.00
2023-02-19T10:24:03.387Z,488.00
2023-02-19T10:25:03.426Z,485.00
2023-02-19T10:26:03.470Z,484.00
2023-02-19T10:27:03.541Z,485.00
2023-02-19T10:28:03.603Z,484.00
2023-02-19T10:29:03.632Z,484.00
2023-02-19T10:30:03.674Z,485.00
2023-02-19T10:31:03.765Z,485.00
2023-02-19T10:32:03.807Z,484.00
2023-02-19T10:33:03.794Z,485.00
2023-02-19T10:34:03.846Z,483.00
2023-02-19T10:35:03.930Z,482.00
2023-02-19T10:36:03.947Z,482.00
2023-02-19T10:37:03.985Z,481.00
2023-02-19T10:38:04.017Z,481.00
2023-02-19T10:39:04.021Z,480.00
2023-02-19T10:40:04.086Z,476.00
2023-02-19T10:41:04.132Z,475.00
2023-02-19T10:42:04.182Z,475.00
2023-02-19T10:43:04.217Z,477.00
2023-02-19T10:44:04.304Z,479.00
2023-02-19T10:45:04.358Z,478.00
2023-02-19T10:46:04.380Z,477.00
2023-02-19T10:47:04.425Z,477.00
2023-02-19T10:48:04.476Z,478.00
2023-02-19T10:49:04.551Z,481.00
2023-02-19T10:50:04.883Z,484.00
2023-02-19T10:51:04.677Z,483.00
2023-02-19T10:52:04.705Z,481.00
2023-02-19T10:53:04.708Z,482.00
2023-02-19T10:54:04.795Z,482.00
2023-02-19T10:55:04.835Z,478.00
2023-02-19T10:56:04.873Z,477.00
2023-02-19T10:57:04.968Z,474.00
2023-02-19T10:58:04.989Z,474.00
2023-02-19T10:59:05.045Z,474.00
2023-02-19T11:00:05.106Z,476.00
2023-02-19T11:01:06.268Z,474.00
2023-02-19T11:02:05.218Z,473.00
2023-02-19T11:03:05.195Z,476.00
2023-02-19T11:04:05.284Z,478.00
2023-02-19T11:05:05.329Z,478.00
2023-02-19T11:06:05.381Z,478.00
2023-02-19T11:07:05.428Z,475.00
2023-02-19T11:08:05.455Z,472.00
2023-02-19T11:09:05.547Z,473.00
2023-02-19T11:10:05.584Z,474.00
2023-02-19T11:11:05.624Z,477.00
2023-02-19T11:12:06.178Z,477.00
2023-02-19T11:13:05.745Z,479.00
2023-02-19T11:14:05.780Z,478.00
2023-02-19T11:15:05.822Z,477.00
2023-02-19T11:16:05.958Z,478.00
2023-02-19T11:17:05.952Z,478.00
2023-02-19T11:18:06.021Z,477.00
2023-02-19T11:19:06.088Z,475.00
2023-02-19T11:20:07.015Z,474.00
2023-02-19T11:21:06.161Z,473.00
2023-02-19T11:22:06.239Z,474.00
2023-02-19T11:23:06.284Z,475.00
2023-02-19T11:24:06.329Z,474.00
2023-02-19T11:25:06.401Z,473.00
2023-02-19T11:26:06.441Z,474.00
2023-02-19T11:27:06.495Z,474.00
2023-02-19T11:28:06.558Z,472.00
2023-02-19T11:29:06.613Z,474.00
2023-02-19T11:30:06.699Z,472.00
2023-02-19T11:31:06.775Z,473.00
2023-02-19T11:32:06.785Z,472.00
2023-02-19T11:33:06.810Z,472.00
2023-02-19T11:34:06.854Z,472.00
2023-02-19T11:35:06.919Z,474.00
2023-02-19T11:36:06.968Z,475.00
2023-02-19T11:37:07.028Z,474.00
2023-02-19T11:38:07.067Z,473.00
2023-02-19T11:39:07.147Z,474.00
2023-02-19T11:40:07.217Z,473.00
2023-02-19T11:41:07.262Z,473.00
2023-02-19T11:42:07.279Z,472.00
2023-02-19T11:43:07.348Z,472.00
2023-02-19T11:44:07.379Z,471.00
2023-02-19T11:45:07.449Z,471.00
2023-02-19T11:46:07.499Z,472.00
2023-02-19T11:47:07.547Z,470.00
2023-02-19T11:48:07.593Z,469.00
2023-02-19T11:49:07.684Z,470.00
2023-02-19T11:50:07.693Z,469.00
2023-02-19T11:51:07.736Z,466.00
2023-02-19T11:52:07.804Z,467.00
2023-02-19T11:53:07.845Z,468.00
2023-02-19T11:54:07.911Z,469.00
2023-02-19T11:55:07.938Z,472.00
2023-02-19T11:56:08.039Z,470.00
2023-02-19T11:57:08.060Z,471.00
2023-02-19T11:58:08.119Z,468.00
2023-02-19T11:59:08.169Z,467.00
2023-02-19T12:00:08.220Z,465.00
2023-02-19T12:01:08.366Z,467.00
2023-02-19T12:02:08.397Z,468.00
2023-02-19T12:03:08.391Z,466.00
2023-02-19T12:04:08.444Z,462.00
2023-02-19T12:05:08.482Z,462.00
2023-02-19T12:06:08.780Z,463.00
2023-02-19T12:07:08.573Z,464.00
2023-02-19T12:08:08.615Z,465.00
2023-02-19T12:09:08.692Z,466.00
2023-02-19T12:10:08.717Z,466.00
2023-02-19T12:11:08.750Z,465.00
2023-02-19T12:12:08.804Z,464.00
2023-02-19T12:13:08.850Z,466.00
2023-02-19T12:14:08.884Z,467.00
2023-02-19T12:15:08.948Z,468.00
2023-02-19T12:16:09.045Z,467.00
2023-02-19T12:17:09.040Z,468.00
2023-02-19T12:18:09.099Z,466.00
2023-02-19T12:19:09.166Z,464.00
2023-02-19T12:20:09.156Z,461.00
2023-02-19T12:21:09.663Z,461.00
2023-02-19T12:22:09.279Z,461.00
2023-02-19T12:23:09.342Z,460.00
2023-02-19T12:24:09.387Z,462.00
2023-02-19T12:25:09.392Z,460.00
2023-02-19T12:26:09.769Z,462.00
2023-02-19T12:27:09.504Z,462.00
2023-02-19T12:28:09.537Z,463.00
2023-02-19T12:29:09.600Z,462.00
2023-02-19T12:30:09.660Z,463.00
2023-02-19T12:31:09.733Z,465.00
2023-02-19T12:32:09.834Z,462.00
2023-02-19T12:33:09.729Z,460.00
2023-02-19T12:34:09.843Z,458.00
2023-02-19T12:35:09.901Z,459.00
2023-02-19T12:36:10.398Z,457.00
2023-02-19T12:37:09.972Z,456.00
2023-02-19T12:38:10.014Z,455.00
2023-02-19T12:39:10.082Z,453.00
2023-02-19T12:40:10.121Z,454.00
2023-02-19T12:41:10.172Z,454.00
2023-02-19T12:42:10.201Z,455.00
2023-02-19T12:43:10.252Z,456.00
2023-02-19T12:44:10.288Z,456.00
2023-02-19T12:45:10.325Z,455.00
2023-02-19T12:46:10.846Z,452.00
2023-02-19T12:47:10.452Z,453.00
2023-02-19T12:48:10.503Z,451.00
2023-02-19T12:49:10.561Z,450.00
2023-02-19T12:50:10.598Z,450.00
2023-02-19T12:51:10.633Z,449.00
2023-02-19T12:52:10.717Z,448.00
2023-02-19T12:53:10.766Z,449.00
2023-02-19T12:54:10.818Z,450.00
2023-02-19T12:55:10.829Z,452.00
2023-02-19T12:56:11.221Z,452.00
2023-02-19T12:57:10.934Z,452.00
2023-02-19T12:58:11.009Z,452.00
2023-02-19T12:59:11.077Z,451.00
2023-02-19T13:00:11.119Z,451.00
2023-02-19T13:01:11.154Z,452.00
2023-02-19T13:02:11.204Z,451.00
2023-02-19T13:03:11.248Z,451.00
2023-02-19T13:04:11.253Z,451.00
2023-02-19T13:05:11.332Z,450.00
2023-02-19T13:06:13.553Z,448.00
2023-02-19T13:07:11.428Z,447.00
2023-02-19T13:08:11.485Z,446.00
2023-02-19T13:09:11.532Z,443.00
2023-02-19T13:10:11.577Z,445.00
2023-02-19T13:11:11.925Z,446.00
2023-02-19T13:12:11.687Z,447.00
2023-02-19T13:13:11.735Z,447.00
2023-02-19T13:14:11.798Z,446.00
2023-02-19T13:15:11.848Z,446.00
2023-02-19T13:16:12.173Z,446.00
2023-02-19T13:17:11.939Z,446.00
2023-02-19T13:18:11.975Z,444.00
2023-02-19T13:19:12.037Z,444.00
2023-02-19T13:20:12.078Z,443.00
2023-02-19T13:21:12.454Z,444.00
2023-02-19T13:22:12.224Z,441.00
2023-02-19T13:23:12.188Z,442.00
2023-02-19T13:24:12.264Z,441.00
2023-02-19T13:25:12.280Z,441.00
2023-02-19T13:26:12.645Z,446.00
2023-02-19T13:27:12.367Z,445.00
2023-02-19T13:28:12.432Z,445.00
2023-02-19T13:29:12.513Z,445.00
2023-02-19T13:30:12.581Z,447.00
2023-02-19T13:31:12.950Z,448.00
2023-02-19T13:32:12.730Z,447.00
2023-02-19T13:33:12.688Z,447.00
2023-02-19T13:34:12.744Z,447.00
2023-02-19T13:35:12.807Z,446.00
2023-02-19T13:36:12.866Z,446.00
2023-02-19T13:37:12.881Z,446.00
2023-02-19T13:38:12.917Z,442.00
2023-02-19T13:39:12.937Z,443.00
2023-02-19T13:40:13.013Z,443.00
2023-02-19T13:41:13.218Z,444.00
2023-02-19T13:42:13.117Z,446.00
2023-02-19T13:43:13.250Z,447.00
2023-02-19T13:44:13.223Z,445.00
2023-02-19T13:45:13.251Z,445.00
2023-02-19T13:46:13.306Z,444.00
2023-02-19T13:47:13.341Z,446.00
2023-02-19T13:48:13.386Z,443.00
2023-02-19T13:49:13.470Z,444.00
2023-02-19T13:50:13.534Z,441.00
2023-02-19T13:51:13.700Z,442.00
2023-02-19T13:52:13.612Z,441.00
2023-02-19T13:53:13.628Z,442.00
2023-02-19T13:54:13.706Z,440.00
2023-02-19T13:55:13.750Z,440.00
2023-02-19T13:56:13.827Z,437.00
2023-02-19T13:57:13.867Z,436.00
2023-02-19T13:58:13.946Z,435.00
2023-02-19T13:59:13.979Z,435.00
2023-02-19T14:00:14.020Z,436.00
2023-02-19T14:01:14.487Z,437.00
2023-02-19T14:02:14.220Z,436.00
2023-02-19T14:03:14.181Z,438.00
2023-02-19T14:04:14.295Z,438.00
2023-02-19T14:05:14.300Z,438.00
2023-02-19T14:06:14.347Z,439.00
2023-02-19T14:07:14.411Z,438.00
2023-02-19T14:08:14.423Z,436.00
2023-02-19T14:09:14.548Z,435.00
2023-02-19T14:10:14.551Z,436.00
2023-02-19T14:11:14.619Z,435.00
2023-02-19T14:12:16.136Z,434.00
2023-02-19T14:13:14.692Z,434.00
2023-02-19T14:14:14.775Z,433.00
2023-02-19T14:15:14.821Z,432.00
2023-02-19T14:16:14.879Z,434.00
2023-02-19T14:17:14.923Z,433.00
2023-02-19T14:18:14.967Z,432.00
2023-02-19T14:19:15.055Z,433.00
2023-02-19T14:20:15.076Z,433.00
2023-02-19T14:21:15.158Z,435.00
2023-02-19T14:22:15.182Z,436.00
2023-02-19T14:23:15.236Z,435.00
2023-02-19T14:24:15.310Z,436.00
2023-02-19T14:25:15.358Z,436.00
2023-02-19T14:26:15.367Z,438.00
2023-02-19T14:27:15.473Z,439.00
2023-02-19T14:28:15.470Z,439.00
2023-02-19T14:29:15.510Z,436.00
2023-02-19T14:30:15.618Z,437.00
2023-02-19T14:31:17.526Z,438.00
2023-02-19T14:32:15.709Z,435.00
2023-02-19T14:33:15.768Z,433.00
2023-02-19T14:34:15.823Z,431.00
2023-02-19T14:35:15.856Z,432.00
2023-02-19T14:36:15.875Z,432.00
2023-02-19T14:37:15.936Z,433.00
2023-02-19T14:38:16.047Z,433.00
2023-02-19T14:39:16.066Z,436.00
2023-02-19T14:40:16.112Z,435.00
2023-02-19T14:41:16.181Z,437.00
2023-02-19T14:42:16.245Z,439.00
2023-02-19T14:43:16.300Z,437.00
2023-02-19T14:44:16.387Z,437.00
2023-02-19T14:45:16.355Z,436.00
2023-02-19T14:46:16.463Z,435.00
2023-02-19T14:47:16.483Z,433.00
2023-02-19T14:48:16.539Z,431.00
2023-02-19T14:49:16.573Z,431.00
2023-02-19T14:59:17.083Z,429.00
2023-02-19T15:00:17.118Z,430.00
2023-02-19T15:01:17.197Z,430.00
2023-02-19T15:02:17.194Z,431.00
2023-02-19T15:03:17.259Z,431.00
2023-02-19T15:05:17.382Z,424.00
2023-02-19T15:06:17.385Z,425.00
2023-02-19T15:07:17.442Z,426.00
2023-02-19T15:08:17.535Z,427.00
2023-02-19T15:09:17.564Z,428.00
2023-02-19T15:10:17.603Z,428.00
2023-02-19T15:11:17.685Z,429.00
2023-02-19T15:12:17.728Z,430.00
2023-02-19T15:13:17.774Z,428.00
2023-02-19T15:14:17.830Z,425.00
2023-02-19T15:15:17.865Z,425.00
2023-02-19T15:16:18.139Z,426.00
2023-02-19T15:17:17.993Z,427.00
2023-02-19T15:18:18.072Z,430.00
2023-02-19T15:19:18.103Z,427.00
2023-02-19T15:20:18.127Z,427.00
2023-02-19T15:21:18.209Z,427.00
2023-02-19T15:22:18.256Z,427.00
2023-02-19T15:23:18.298Z,426.00
2023-02-19T15:24:18.350Z,427.00
2023-02-19T15:25:18.429Z,427.00
2023-02-19T15:26:18.502Z,427.00
2023-02-19T15:27:18.509Z,429.00
2023-02-19T15:28:18.540Z,430.00
2023-02-19T15:29:18.615Z,430.00
2023-02-19T15:30:18.689Z,431.00
2023-02-19T15:31:18.794Z,429.00
2023-02-19T15:32:18.741Z,428.00
2023-02-19T15:33:18.808Z,427.00
2023-02-19T15:34:18.842Z,425.00
2023-02-19T15:35:18.893Z,425.00
2023-02-19T15:36:18.936Z,425.00
2023-02-19T15:37:19.022Z,424.00